createdAt,value
2019-06-29T00:00:54.774Z,3.87
2019-06-29T00:03:22.906Z,4.47
2019-06-29T00:05:51.055Z,3.70
2019-06-29T00:08:19.170Z,4.80
2019-06-29T00:10:47.318Z,4.00
2019-06-29T00:13:15.728Z,3.90
2019-06-29T00:15:44.206Z,4.23
2019-06-29T00:18:12.340Z,4.10
2019-06-29T00:20:40.773Z,4.57
2019-06-29T00:23:08.898Z,4.63
2019-06-29T00:25:37.042Z,4.40
2019-06-29T00:28:05.516Z,5.00
2019-06-29T00:30:33.666Z,4.90
2019-06-29T00:33:01.794Z,4.23
2019-06-29T00:35:29.953Z,4.90
2019-06-29T00:37:58.343Z,4.90
2019-06-29T00:40:26.825Z,4.90
2019-06-29T00:42:54.969Z,4.10
2019-06-29T00:45:23.085Z,4.80
2019-06-29T00:47:51.229Z,5.00
2019-06-29T00:50:19.730Z,4.40
2019-06-29T00:52:47.871Z,4.90
2019-06-29T00:55:16.000Z,4.20
2019-06-29T00:57:44.161Z,4.33
2019-06-29T01:00:12.662Z,4.50
2019-06-29T01:02:40.802Z,4.37
2019-06-29T01:05:09.205Z,4.60
2019-06-29T01:07:37.350Z,4.47
2019-06-29T01:10:08.780Z,4.30
2019-06-29T01:12:36.930Z,3.93
2019-06-29T01:15:08.219Z,4.00
2019-06-29T01:17:36.358Z,4.03
2019-06-29T01:20:05.960Z,4.73
2019-06-29T01:22:34.095Z,4.17
2019-06-29T01:25:02.255Z,4.23
2019-06-29T01:27:30.435Z,4.03
2019-06-29T01:29:58.595Z,4.03
2019-06-29T01:32:26.736Z,4.17
2019-06-29T01:34:54.879Z,4.40
2019-06-29T01:37:23.083Z,4.47
2019-06-29T01:39:51.206Z,3.47
2019-06-29T01:42:19.347Z,4.83
2019-06-29T01:44:47.475Z,4.43
2019-06-29T01:47:15.613Z,4.20
2019-06-29T01:49:43.738Z,4.57
2019-06-29T01:52:11.878Z,4.50
2019-06-29T01:54:40.354Z,4.33
2019-06-29T01:57:08.843Z,4.30
2019-06-29T01:59:36.979Z,4.57
2019-06-29T02:02:05.194Z,4.17
2019-06-29T02:04:33.341Z,4.60
2019-06-29T02:07:01.481Z,4.20
2019-06-29T02:09:29.611Z,4.40
2019-06-29T02:11:57.745Z,3.80
2019-06-29T02:14:26.225Z,4.10
2019-06-29T02:16:54.402Z,3.97
2019-06-29T02:19:22.862Z,4.10
2019-06-29T02:21:50.989Z,4.33
2019-06-29T02:24:19.150Z,4.03
2019-06-29T02:26:47.594Z,4.00
2019-06-29T02:29:15.734Z,4.50
2019-06-29T02:31:43.872Z,4.30
2019-06-29T02:34:12.010Z,4.33
2019-06-29T02:36:40.184Z,4.00
2019-06-29T02:39:08.321Z,3.83
2019-06-29T02:41:36.438Z,4.47
2019-06-29T02:44:04.651Z,3.90
2019-06-29T02:46:32.773Z,4.10
2019-06-29T02:49:00.909Z,4.43
2019-06-29T02:51:29.375Z,3.67
2019-06-29T02:53:57.516Z,4.17
2019-06-29T02:56:25.743Z,4.00
2019-06-29T02:58:54.233Z,3.93
2019-06-29T03:01:22.753Z,4.20
2019-06-29T03:03:50.980Z,4.00
2019-06-29T03:06:19.178Z,3.80
2019-06-29T03:08:47.658Z,3.77
2019-06-29T03:11:15.815Z,4.23
2019-06-29T03:13:43.954Z,5.00
2019-06-29T03:16:12.077Z,4.30
2019-06-29T03:18:40.214Z,4.00
2019-06-29T03:21:08.675Z,3.83
2019-06-29T03:23:36.812Z,4.23
2019-06-29T03:26:04.973Z,3.60
2019-06-29T03:28:33.161Z,4.80
2019-06-29T03:31:01.296Z,5.20
2019-06-29T03:33:29.426Z,3.83
2019-06-29T03:35:57.600Z,4.10
2019-06-29T03:38:25.754Z,4.43
2019-06-29T03:40:53.893Z,4.23
2019-06-29T03:43:22.022Z,4.13
2019-06-29T03:45:50.170Z,4.77
2019-06-29T03:48:18.292Z,4.63
2019-06-29T03:50:46.669Z,3.33
2019-06-29T03:53:14.797Z,3.30
2019-06-29T03:55:42.940Z,3.87
2019-06-29T03:58:11.099Z,4.47
2019-06-29T04:00:43.482Z,3.90
2019-06-29T04:03:16.085Z,4.83
2019-06-29T04:05:48.970Z,4.17
2019-06-29T04:08:21.586Z,3.97
2019-06-29T04:10:57.004Z,3.60
2019-06-29T04:13:26.677Z,4.70
2019-06-29T04:16:02.544Z,4.50
2019-06-29T04:18:49.019Z,3.80
2019-06-29T04:21:19.014Z,5.20
2019-06-29T04:23:48.741Z,4.17
2019-06-29T04:26:33.860Z,3.90
2019-06-29T04:29:15.574Z,3.90
2019-06-29T04:31:54.396Z,4.40
2019-06-29T04:34:40.537Z,4.27
2019-06-29T04:37:16.459Z,4.50
2019-06-29T04:39:46.449Z,5.00
2019-06-29T04:42:19.330Z,4.60
2019-06-29T04:44:47.923Z,4.53
2019-06-29T04:47:16.487Z,4.40
2019-06-29T04:49:44.986Z,3.87
2019-06-29T04:52:13.253Z,4.30
2019-06-29T04:54:41.441Z,4.17
2019-06-29T04:57:09.913Z,3.93
2019-06-29T04:59:38.867Z,3.73
2019-06-29T05:02:07.015Z,3.40
2019-06-29T05:04:35.145Z,3.50
2019-06-29T05:07:03.280Z,3.10
2019-06-29T05:09:31.418Z,3.73
2019-06-29T05:11:59.552Z,4.43
2019-06-29T05:14:28.024Z,3.20
2019-06-29T05:16:56.159Z,3.30
2019-06-29T05:19:24.656Z,3.20
2019-06-29T05:21:52.797Z,3.13
2019-06-29T05:24:21.319Z,3.50
2019-06-29T05:27:00.021Z,3.43
2019-06-29T05:29:19.692Z,2.93
2019-06-29T05:31:47.931Z,3.37
2019-06-29T05:34:16.206Z,3.10
2019-06-29T05:36:44.664Z,3.30
2019-06-29T05:39:13.081Z,3.50
2019-06-29T05:41:41.230Z,4.17
2019-06-29T05:44:09.373Z,3.00
2019-06-29T05:46:37.927Z,3.57
2019-06-29T05:49:06.075Z,2.97
2019-06-29T05:51:34.547Z,3.70
2019-06-29T05:54:02.696Z,3.30
2019-06-29T05:56:31.110Z,3.13
2019-06-29T05:58:59.331Z,2.97
2019-06-29T06:01:27.470Z,3.30
2019-06-29T06:03:55.619Z,2.80
2019-06-29T06:06:23.924Z,3.43
2019-06-29T06:08:52.398Z,3.50
2019-06-29T06:11:20.525Z,2.70
2019-06-29T06:13:48.655Z,2.60
2019-06-29T06:16:16.810Z,3.00
2019-06-29T06:18:45.022Z,2.70
2019-06-29T06:21:13.187Z,3.03
2019-06-29T06:24:00.703Z,3.53
2019-06-29T06:26:28.832Z,3.23
2019-06-29T06:28:56.957Z,3.20
2019-06-29T06:31:25.101Z,2.67
2019-06-29T06:33:53.539Z,3.33
2019-06-29T06:36:21.688Z,3.30
2019-06-29T06:38:49.808Z,3.30
2019-06-29T06:41:17.980Z,2.97
2019-06-29T06:43:46.104Z,3.47
2019-06-29T06:46:14.674Z,2.00
2019-06-29T06:48:43.129Z,3.13
2019-06-29T06:51:11.262Z,2.60
2019-06-29T06:53:39.421Z,2.43
2019-06-29T06:56:07.560Z,2.73
2019-06-29T06:58:35.697Z,2.70
2019-06-29T07:01:03.838Z,3.13
2019-06-29T07:03:32.007Z,3.30
2019-06-29T07:06:00.152Z,3.13
2019-06-29T07:08:28.273Z,2.60
2019-06-29T07:10:56.417Z,2.93
2019-06-29T07:13:24.911Z,2.17
2019-06-29T07:15:53.069Z,3.50
2019-06-29T07:18:21.256Z,2.50
2019-06-29T07:20:49.749Z,2.40
2019-06-29T07:23:17.914Z,2.67
2019-06-29T07:25:46.057Z,2.40
2019-06-29T07:28:14.494Z,2.27
2019-06-29T07:30:42.728Z,2.63
2019-06-29T07:33:10.856Z,2.30
2019-06-29T07:35:39.000Z,2.23
2019-06-29T07:38:07.155Z,2.13
2019-06-29T07:40:35.551Z,2.37
2019-06-29T07:43:03.711Z,2.30
2019-06-29T07:45:35.480Z,2.40
2019-06-29T07:48:04.392Z,2.90
2019-06-29T07:50:34.126Z,2.33
2019-06-29T07:53:03.944Z,2.00
2019-06-29T07:55:33.838Z,2.43
2019-06-29T07:58:02.252Z,1.93
2019-06-29T08:00:30.787Z,1.70
2019-06-29T08:02:59.084Z,1.87
2019-06-29T08:05:27.302Z,2.20
2019-06-29T08:07:55.515Z,1.63
2019-06-29T08:10:23.764Z,1.87
2019-06-29T08:12:51.976Z,1.87
2019-06-29T08:15:20.784Z,1.87
2019-06-29T08:17:49.085Z,1.80
2019-06-29T08:20:17.209Z,1.47
2019-06-29T08:22:45.435Z,1.70
2019-06-29T08:25:13.638Z,1.57
2019-06-29T08:27:42.994Z,1.90
2019-06-29T08:30:11.296Z,1.53
2019-06-29T08:32:39.712Z,1.70
2019-06-29T08:35:08.270Z,1.80
2019-06-29T08:37:36.745Z,1.47
2019-06-29T08:40:05.854Z,1.43
2019-06-29T08:42:34.248Z,1.57
2019-06-29T08:45:02.454Z,1.67
2019-06-29T08:47:30.623Z,1.40
2019-06-29T08:49:58.788Z,1.83
2019-06-29T08:52:27.080Z,1.40
2019-06-29T08:54:55.206Z,1.70
2019-06-29T08:57:23.348Z,1.47
2019-06-29T08:59:51.485Z,1.93
2019-06-29T09:02:19.629Z,1.70
2019-06-29T09:04:47.758Z,1.60
2019-06-29T09:07:15.978Z,1.43
2019-06-29T09:09:44.180Z,1.23
2019-06-29T09:12:12.335Z,1.77
2019-06-29T09:14:40.477Z,1.30
2019-06-29T09:17:08.616Z,1.93
2019-06-29T09:19:36.824Z,1.57
2019-06-29T09:22:04.960Z,1.13
2019-06-29T09:24:33.338Z,1.50
2019-06-29T09:27:01.499Z,1.90
2019-06-29T09:29:32.238Z,1.57
2019-06-29T09:32:01.682Z,1.70
2019-06-29T09:34:31.942Z,1.40
2019-06-29T09:37:01.966Z,1.47
2019-06-29T09:39:29.688Z,1.20
2019-06-29T09:41:58.130Z,1.37
2019-06-29T09:44:26.362Z,1.30
2019-06-29T09:46:54.544Z,1.27
2019-06-29T09:49:22.707Z,1.30
2019-06-29T09:51:52.037Z,1.37
2019-06-29T09:54:21.479Z,1.27
2019-06-29T09:56:52.885Z,1.40
2019-06-29T09:59:30.125Z,1.53
2019-06-29T10:01:52.293Z,1.23
2019-06-29T10:04:19.756Z,1.27
2019-06-29T10:06:47.906Z,1.43
2019-06-29T10:09:16.080Z,1.53
2019-06-29T10:11:44.214Z,1.10
2019-06-29T10:14:12.352Z,1.53
2019-06-29T10:16:41.648Z,1.43
2019-06-29T10:19:12.858Z,1.60
2019-06-29T10:21:43.017Z,1.20
2019-06-29T10:24:12.199Z,1.53
2019-06-29T10:26:42.073Z,1.40
2019-06-29T10:29:10.072Z,1.30
2019-06-29T10:31:38.499Z,1.50
2019-06-29T10:34:06.979Z,1.00
2019-06-29T10:36:35.373Z,1.33
2019-06-29T10:39:05.055Z,1.10
2019-06-29T10:41:33.178Z,1.10
2019-06-29T10:44:04.967Z,0.80
2019-06-29T10:46:35.128Z,1.90
2019-06-29T10:49:04.010Z,1.43
2019-06-29T10:51:31.598Z,1.07
2019-06-29T10:54:01.729Z,1.10
2019-06-29T10:56:29.770Z,0.97
2019-06-29T10:58:57.915Z,1.07
2019-06-29T11:01:26.075Z,1.33
2019-06-29T11:03:54.229Z,1.60
2019-06-29T11:06:22.694Z,1.00
2019-06-29T11:08:52.310Z,0.90
2019-06-29T11:11:22.689Z,0.97
2019-06-29T11:13:52.575Z,1.20
2019-06-29T11:16:22.580Z,0.90
2019-06-29T11:18:52.282Z,1.00
2019-06-29T11:21:20.140Z,1.17
2019-06-29T11:23:48.523Z,1.03
2019-06-29T11:26:22.331Z,1.20
2019-06-29T11:28:46.599Z,1.10
2019-06-29T11:31:19.587Z,1.20
2019-06-29T11:33:44.899Z,1.20
2019-06-29T11:36:13.715Z,1.17
2019-06-29T11:38:41.979Z,0.80
2019-06-29T11:41:12.078Z,1.30
2019-06-29T11:43:40.531Z,1.10
2019-06-29T11:46:08.654Z,1.20
2019-06-29T11:48:36.804Z,1.13
2019-06-29T11:51:05.954Z,1.30
2019-06-29T11:53:34.301Z,1.57
2019-06-29T11:56:02.474Z,1.07
2019-06-29T11:58:32.477Z,1.30
2019-06-29T12:01:01.870Z,1.00
2019-06-29T12:03:32.204Z,1.60
2019-06-29T12:06:02.956Z,1.20
2019-06-29T12:08:32.654Z,1.00
2019-06-29T12:11:02.486Z,1.10
2019-06-29T12:13:31.985Z,1.23
2019-06-29T12:16:02.300Z,1.43
2019-06-29T12:18:30.574Z,1.17
2019-06-29T12:20:58.751Z,1.20
2019-06-29T12:23:26.878Z,1.40
2019-06-29T12:25:55.047Z,1.20
2019-06-29T12:28:24.602Z,1.33
2019-06-29T12:31:05.367Z,1.07
2019-06-29T12:33:22.983Z,1.43
2019-06-29T12:35:51.841Z,1.23
2019-06-29T12:38:21.879Z,1.30
2019-06-29T12:40:50.207Z,1.20
2019-06-29T12:43:18.357Z,1.17
2019-06-29T12:45:46.513Z,1.40
2019-06-29T12:48:14.642Z,1.33
2019-06-29T12:50:42.791Z,1.60
2019-06-29T12:53:12.737Z,1.20
2019-06-29T12:55:42.560Z,1.60
2019-06-29T12:58:11.998Z,1.03
2019-06-29T13:00:40.206Z,1.23
2019-06-29T13:03:08.342Z,1.70
2019-06-29T13:05:36.491Z,1.20
2019-06-29T13:08:05.085Z,1.50
2019-06-29T13:10:33.227Z,1.20
2019-06-29T13:13:01.388Z,1.30
2019-06-29T13:15:29.543Z,1.40
2019-06-29T13:17:57.793Z,1.23
2019-06-29T13:20:26.013Z,1.17
2019-06-29T13:22:54.138Z,1.17
2019-06-29T13:25:22.649Z,1.10
2019-06-29T13:27:50.812Z,1.30
2019-06-29T13:30:19.037Z,1.23
2019-06-29T13:32:47.506Z,1.47
2019-06-29T13:35:15.671Z,1.30
2019-06-29T13:37:43.851Z,1.33
2019-06-29T13:40:12.072Z,1.17
2019-06-29T13:42:40.248Z,1.00
2019-06-29T13:45:14.719Z,1.60
2019-06-29T13:47:42.957Z,1.17
2019-06-29T13:50:11.158Z,1.30
2019-06-29T13:52:39.292Z,1.67
2019-06-29T13:55:07.791Z,1.27
2019-06-29T13:57:35.937Z,1.60
2019-06-29T14:00:05.663Z,1.63
2019-06-29T14:02:33.829Z,1.20
2019-06-29T14:05:02.354Z,1.40
2019-06-29T14:07:30.562Z,1.20
2019-06-29T14:09:58.690Z,1.40
2019-06-29T14:12:27.208Z,1.47
2019-06-29T14:14:55.335Z,1.30
2019-06-29T14:17:23.492Z,1.53
2019-06-29T14:19:51.647Z,1.33
2019-06-29T14:22:19.806Z,1.53
2019-06-29T14:24:48.027Z,1.40
2019-06-29T14:27:16.208Z,1.70
2019-06-29T14:29:46.099Z,1.50
2019-06-29T14:32:20.895Z,1.70
2019-06-29T14:34:44.098Z,1.50
2019-06-29T14:37:15.316Z,1.77
2019-06-29T14:39:42.466Z,1.40
2019-06-29T14:42:10.696Z,1.33
2019-06-29T14:44:38.827Z,1.27
2019-06-29T14:47:06.972Z,1.60
2019-06-29T14:49:35.744Z,1.53
2019-06-29T14:52:04.552Z,1.50
2019-06-29T14:54:35.053Z,1.23
2019-06-29T14:57:02.711Z,1.50
2019-06-29T14:59:30.843Z,1.40
2019-06-29T15:01:58.996Z,1.70
2019-06-29T15:04:28.746Z,1.57
2019-06-29T15:06:56.938Z,1.30
2019-06-29T15:09:25.126Z,1.60
2019-06-29T15:11:53.322Z,1.63
2019-06-29T15:14:21.471Z,1.40
2019-06-29T15:16:49.610Z,1.50
2019-06-29T15:19:17.782Z,1.30
2019-06-29T15:21:45.924Z,1.90
2019-06-29T15:24:16.707Z,1.47
2019-06-29T15:26:43.994Z,1.27
2019-06-29T15:29:12.129Z,1.10
2019-06-29T15:31:40.277Z,1.37
2019-06-29T15:34:19.411Z,1.30
2019-06-29T15:36:38.618Z,1.70
2019-06-29T15:39:06.765Z,1.40
2019-06-29T15:41:34.909Z,1.50
2019-06-29T15:44:03.043Z,1.87
2019-06-29T15:46:31.155Z,2.03
2019-06-29T15:48:59.589Z,2.33
2019-06-29T15:51:27.767Z,1.80
2019-06-29T15:53:55.842Z,1.60
2019-06-29T15:56:24.295Z,2.20
2019-06-29T15:58:52.375Z,2.40
2019-06-29T16:01:20.483Z,1.40
2019-06-29T16:03:48.600Z,1.90
2019-06-29T16:06:17.976Z,2.10
2019-06-29T16:08:46.459Z,1.23
2019-06-29T16:11:16.416Z,1.93
2019-06-29T16:13:44.574Z,5.77
2019-06-29T16:16:12.745Z,2.07
2019-06-29T16:18:40.886Z,2.20
2019-06-29T16:21:09.068Z,2.17
2019-06-29T16:23:37.523Z,2.30
2019-06-29T16:26:06.034Z,2.27
2019-06-29T16:28:34.286Z,3.13
2019-06-29T16:31:02.574Z,3.10
2019-06-29T16:33:31.483Z,2.50
2019-06-29T16:36:00.072Z,3.90
2019-06-29T16:38:28.205Z,3.10
2019-06-29T16:40:56.343Z,2.30
2019-06-29T16:43:24.833Z,2.10
2019-06-29T16:45:52.958Z,1.83
2019-06-29T16:48:21.842Z,2.13
2019-06-29T16:50:50.049Z,2.47
2019-06-29T16:53:18.249Z,2.20
2019-06-29T16:55:46.409Z,2.07
2019-06-29T16:58:14.670Z,1.90
2019-06-29T17:00:43.498Z,1.67
2019-06-29T17:03:11.722Z,2.20
2019-06-29T17:05:40.129Z,2.30
2019-06-29T17:08:08.594Z,2.83
2019-06-29T17:10:37.155Z,2.20
2019-06-29T17:13:05.365Z,1.80
2019-06-29T17:15:33.936Z,3.63
2019-06-29T17:18:02.071Z,3.73
2019-06-29T17:20:30.230Z,1.77
2019-06-29T17:22:58.444Z,2.47
2019-06-29T17:25:26.595Z,3.00
2019-06-29T17:27:54.698Z,2.33
2019-06-29T17:30:23.171Z,1.90
2019-06-29T17:32:51.260Z,2.20
2019-06-29T17:35:19.421Z,2.20
2019-06-29T17:37:47.569Z,2.67
2019-06-29T17:40:15.771Z,2.60
2019-06-29T17:42:43.859Z,2.53
2019-06-29T17:45:13.532Z,1.90
2019-06-29T17:47:42.133Z,2.60
2019-06-29T17:50:10.662Z,2.07
2019-06-29T17:52:39.749Z,2.00
2019-06-29T17:55:08.402Z,2.40
2019-06-29T17:57:36.534Z,2.27
2019-06-29T18:00:07.902Z,3.03
2019-06-29T18:02:36.392Z,2.50
2019-06-29T18:05:05.502Z,2.30
2019-06-29T18:07:33.626Z,1.80
2019-06-29T18:10:02.169Z,1.80
2019-06-29T18:12:30.295Z,2.93
2019-06-29T18:14:58.421Z,2.20
2019-06-29T18:17:26.572Z,2.50
2019-06-29T18:19:55.068Z,2.40
2019-06-29T18:22:23.192Z,2.83
2019-06-29T18:24:51.298Z,2.03
2019-06-29T18:27:19.381Z,2.20
2019-06-29T18:29:47.511Z,2.17
2019-06-29T18:32:15.631Z,2.37
2019-06-29T18:34:43.744Z,1.80
2019-06-29T18:37:12.191Z,2.77
2019-06-29T18:39:40.311Z,2.50
2019-06-29T18:42:08.451Z,2.70
2019-06-29T18:44:36.583Z,2.53
2019-06-29T18:47:04.730Z,2.83
2019-06-29T18:49:33.209Z,3.27
2019-06-29T18:52:01.428Z,3.10
2019-06-29T18:54:29.573Z,3.30
2019-06-29T18:56:57.751Z,3.13
2019-06-29T18:59:25.883Z,2.80
2019-06-29T19:01:54.145Z,2.20
2019-06-29T19:04:23.024Z,3.03
2019-06-29T19:06:51.175Z,2.70
2019-06-29T19:09:19.303Z,2.70
2019-06-29T19:11:47.508Z,2.63
2019-06-29T19:14:15.686Z,3.07
2019-06-29T19:16:43.827Z,2.93
2019-06-29T19:19:11.958Z,2.67
2019-06-29T19:21:40.148Z,3.63
2019-06-29T19:24:08.316Z,3.03
2019-06-29T19:26:36.508Z,3.40
2019-06-29T19:29:05.063Z,3.40
2019-06-29T19:31:33.564Z,3.90
2019-06-29T19:34:01.708Z,3.60
2019-06-29T19:36:30.371Z,3.53
2019-06-29T19:38:58.615Z,3.53
2019-06-29T19:41:26.788Z,4.00
2019-06-29T19:43:54.927Z,3.40
2019-06-29T19:46:23.063Z,4.07
2019-06-29T19:48:51.189Z,4.10
2019-06-29T19:51:19.341Z,4.47
2019-06-29T19:53:47.462Z,4.40
2019-06-29T19:56:15.606Z,4.50
2019-06-29T19:58:44.017Z,3.80
2019-06-29T20:01:12.266Z,4.67
2019-06-29T20:03:40.404Z,4.47
2019-06-29T20:06:08.547Z,4.43
2019-06-29T20:08:37.721Z,4.77
2019-06-29T20:11:05.953Z,4.60
2019-06-29T20:13:34.081Z,5.50
2019-06-29T20:16:02.209Z,5.40
2019-06-29T20:18:30.657Z,5.10
2019-06-29T20:20:58.781Z,5.17
2019-06-29T20:23:26.925Z,5.30
2019-06-29T20:25:55.059Z,4.57
2019-06-29T20:28:23.201Z,4.10
2019-06-29T20:30:51.662Z,4.90
2019-06-29T20:33:19.801Z,4.80
2019-06-29T20:35:47.929Z,4.80
2019-06-29T20:38:16.093Z,4.77
2019-06-29T20:40:44.221Z,4.57
2019-06-29T20:43:12.399Z,4.37
2019-06-29T20:45:40.779Z,4.43
2019-06-29T20:48:09.238Z,5.17
2019-06-29T20:50:37.357Z,4.70
2019-06-29T20:53:05.920Z,4.30
2019-06-29T20:55:34.118Z,5.40
2019-06-29T20:58:02.258Z,4.53
2019-06-29T21:00:32.408Z,4.70
2019-06-29T21:03:00.713Z,5.10
2019-06-29T21:05:28.852Z,5.37
2019-06-29T21:07:57.014Z,5.60
2019-06-29T21:10:25.103Z,5.40
2019-06-29T21:12:53.573Z,5.40
2019-06-29T21:15:22.472Z,5.27
2019-06-29T21:17:51.051Z,6.50
2019-06-29T21:20:20.221Z,5.73
2019-06-29T21:22:50.048Z,5.67
2019-06-29T21:25:19.695Z,5.27
2019-06-29T21:27:49.190Z,4.73
2019-06-29T21:30:19.615Z,5.83
2019-06-29T21:32:49.831Z,4.83
2019-06-29T21:35:19.512Z,6.00
2019-06-29T21:37:48.120Z,5.53
2019-06-29T21:40:16.816Z,5.60
2019-06-29T21:42:45.623Z,6.03
2019-06-29T21:45:14.391Z,5.53
2019-06-29T21:47:42.569Z,5.30
2019-06-29T21:50:10.875Z,5.83
2019-06-29T21:52:39.176Z,4.87
2019-06-29T21:55:07.702Z,4.93
2019-06-29T21:57:35.853Z,6.13
2019-06-29T22:00:05.699Z,5.60
2019-06-29T22:02:33.856Z,5.40
2019-06-29T22:05:02.003Z,5.50
2019-06-29T22:07:30.674Z,7.07
2019-06-29T22:09:58.886Z,5.40
2019-06-29T22:12:27.053Z,6.00
2019-06-29T22:14:55.535Z,6.07
2019-06-29T22:17:23.670Z,6.63
2019-06-29T22:19:51.801Z,6.43
2019-06-29T22:22:19.938Z,6.03
2019-06-29T22:24:48.121Z,5.13
2019-06-29T22:27:16.306Z,6.43
2019-06-29T22:29:44.472Z,6.67
2019-06-29T22:32:12.606Z,6.37
2019-06-29T22:34:40.782Z,6.60
2019-06-29T22:37:08.920Z,5.50
2019-06-29T22:39:37.054Z,6.20
2019-06-29T22:42:05.189Z,5.67
2019-06-29T22:44:33.998Z,5.33
2019-06-29T22:47:02.209Z,6.03
2019-06-29T22:49:30.659Z,6.00
2019-06-29T22:51:58.795Z,5.60
2019-06-29T22:54:26.929Z,5.07
2019-06-29T22:56:55.331Z,5.93
2019-06-29T22:59:23.774Z,6.60
2019-06-29T23:01:51.931Z,5.40
2019-06-29T23:04:20.061Z,4.37
2019-06-29T23:06:48.219Z,5.43
2019-06-29T23:09:16.342Z,5.67
2019-06-29T23:11:44.477Z,5.80
2019-06-29T23:14:12.652Z,5.83
2019-06-29T23:16:40.773Z,5.37
2019-06-29T23:19:09.231Z,5.17
2019-06-29T23:21:37.433Z,5.13
2019-06-29T23:24:05.647Z,5.13
2019-06-29T23:26:33.771Z,6.07
2019-06-29T23:29:02.238Z,5.23
2019-06-29T23:31:30.425Z,5.40
2019-06-29T23:33:58.580Z,5.33
2019-06-29T23:36:26.747Z,5.87
2019-06-29T23:38:54.876Z,6.27
2019-06-29T23:41:23.089Z,5.73
2019-06-29T23:43:51.613Z,5.70
2019-06-29T23:46:19.757Z,6.47
2019-06-29T23:48:47.918Z,4.93
2019-06-29T23:51:16.054Z,4.40
2019-06-29T23:53:44.177Z,4.90
2019-06-29T23:56:12.610Z,5.67
2019-06-29T23:58:40.774Z,5.13
